createdAt,value
2023-03-06T00:02:08.004Z,82.00
2023-03-06T00:04:34.717Z,82.67
2023-03-06T00:07:01.433Z,82.93
2023-03-06T00:09:28.127Z,83.10
2023-03-06T00:11:54.918Z,82.20
2023-03-06T00:14:21.681Z,81.84
2023-03-06T00:16:54.966Z,82.59
2023-03-06T00:19:22.812Z,82.85
2023-03-06T00:21:49.801Z,83.45
2023-03-06T00:24:16.597Z,83.55
2023-03-06T00:26:43.361Z,83.34
2023-03-06T00:29:10.344Z,84.11
2023-03-06T00:31:37.344Z,85.15
2023-03-06T00:34:04.697Z,84.95
2023-03-06T00:36:31.444Z,84.40
2023-03-06T00:38:58.357Z,84.64
2023-03-06T00:41:25.095Z,84.43
2023-03-06T00:43:51.793Z,84.68
2023-03-06T00:46:18.665Z,84.92
2023-03-06T00:48:45.634Z,84.65
2023-03-06T00:51:14.036Z,84.58
2023-03-06T00:53:41.080Z,85.08
2023-03-06T00:56:09.247Z,85.07
2023-03-06T00:58:37.380Z,84.91
2023-03-06T01:01:04.786Z,84.72
2023-03-06T01:03:31.717Z,85.00
2023-03-06T01:05:58.571Z,84.52
2023-03-06T01:08:25.354Z,83.90
2023-03-06T01:10:52.179Z,83.27
2023-03-06T01:13:18.846Z,83.06
2023-03-06T01:15:45.589Z,82.73
2023-03-06T01:18:12.338Z,81.46
2023-03-06T01:20:39.324Z,80.92
2023-03-06T01:23:06.040Z,80.43
2023-03-06T01:25:32.891Z,80.63
2023-03-06T01:27:59.609Z,80.84
2023-03-06T01:30:26.343Z,80.82
2023-03-06T01:32:53.459Z,81.40
2023-03-06T01:35:20.397Z,81.73
2023-03-06T01:37:47.220Z,82.07
2023-03-06T01:40:14.513Z,81.71
2023-03-06T01:42:41.890Z,82.52
2023-03-06T01:45:31.787Z,82.98
2023-03-06T01:47:58.629Z,82.97
2023-03-06T01:50:25.559Z,83.14
2023-03-06T01:52:55.544Z,81.97
2023-03-06T01:55:30.992Z,82.28
2023-03-06T01:58:01.337Z,82.64
2023-03-06T02:00:29.685Z,81.89
2023-03-06T02:03:11.489Z,83.19
2023-03-06T02:05:40.487Z,83.54
2023-03-06T02:08:11.434Z,83.38
2023-03-06T02:10:58.116Z,83.44
2023-03-06T02:13:25.034Z,83.92
2023-03-06T02:15:52.020Z,83.81
2023-03-06T02:18:19.967Z,84.13
2023-03-06T02:20:53.009Z,83.85
2023-03-06T02:23:48.910Z,84.46
2023-03-06T02:26:16.526Z,84.58
2023-03-06T02:28:43.438Z,85.00
2023-03-06T02:31:25.411Z,85.42
2023-03-06T02:34:14.079Z,85.49
2023-03-06T02:36:48.501Z,86.07
2023-03-06T02:39:16.068Z,85.64
2023-03-06T02:41:42.776Z,85.93
2023-03-06T02:44:09.654Z,85.40
2023-03-06T02:46:36.493Z,85.60
2023-03-06T02:49:03.262Z,85.21
2023-03-06T02:51:30.073Z,85.15
2023-03-06T02:53:56.942Z,85.42
2023-03-06T02:56:23.737Z,85.36
2023-03-06T02:58:50.558Z,85.36
2023-03-06T03:01:17.291Z,85.25
2023-03-06T03:03:44.218Z,85.17
2023-03-06T03:06:11.264Z,85.63
2023-03-06T03:08:38.324Z,85.95
2023-03-06T03:11:05.849Z,86.32
2023-03-06T03:13:39.435Z,86.83
2023-03-06T03:16:14.054Z,86.29
2023-03-06T03:18:42.191Z,87.80
2023-03-06T03:21:12.447Z,88.91
2023-03-06T03:23:39.363Z,89.84
2023-03-06T03:26:11.882Z,89.67
2023-03-06T03:28:42.207Z,89.08
2023-03-06T03:31:12.457Z,89.19
2023-03-06T03:33:40.340Z,88.95
2023-03-06T03:36:08.371Z,88.43
2023-03-06T03:38:39.246Z,88.60
2023-03-06T03:41:06.592Z,88.27
2023-03-06T03:43:33.856Z,87.93
2023-03-06T03:46:01.007Z,87.28
2023-03-06T03:48:28.530Z,87.17
2023-03-06T03:51:05.016Z,83.91
2023-03-06T03:53:32.763Z,86.02
2023-03-06T03:55:59.578Z,86.42
2023-03-06T03:58:27.151Z,83.42
2023-03-06T04:00:53.970Z,84.80
2023-03-06T04:03:20.892Z,83.93
2023-03-06T04:05:47.879Z,85.28
2023-03-06T04:08:16.358Z,85.01
2023-03-06T04:10:45.792Z,84.38
2023-03-06T04:13:14.845Z,84.74
2023-03-06T04:15:43.935Z,85.44
2023-03-06T04:18:11.572Z,85.43
2023-03-06T04:20:38.960Z,85.97
2023-03-06T04:23:05.784Z,86.51
2023-03-06T04:25:32.953Z,86.70
2023-03-06T04:28:02.076Z,86.19
2023-03-06T04:30:29.975Z,86.35
2023-03-06T04:32:57.848Z,85.99
2023-03-06T04:35:25.063Z,86.04
2023-03-06T04:37:58.491Z,86.54
2023-03-06T04:40:30.467Z,86.46
2023-03-06T04:42:59.194Z,86.48
2023-03-06T04:45:27.684Z,86.34
2023-03-06T04:47:55.208Z,85.94
2023-03-06T04:50:22.767Z,85.65
2023-03-06T04:52:49.801Z,85.33
2023-03-06T04:55:17.676Z,85.76
2023-03-06T04:57:46.340Z,85.40
2023-03-06T05:00:22.452Z,85.69
2023-03-06T05:02:50.087Z,85.26
2023-03-06T05:05:18.052Z,85.57
2023-03-06T05:07:44.974Z,85.67
2023-03-06T05:10:14.579Z,85.96
2023-03-06T05:12:41.481Z,85.89
2023-03-06T05:15:14.568Z,86.44
2023-03-06T05:17:41.548Z,87.75
2023-03-06T05:20:11.899Z,87.73
2023-03-06T05:22:38.718Z,87.71
2023-03-06T05:25:05.722Z,87.72
2023-03-06T05:27:33.508Z,87.36
2023-03-06T05:30:00.290Z,87.12
2023-03-06T05:32:27.049Z,87.67
2023-03-06T05:34:53.951Z,87.94
2023-03-06T05:37:20.804Z,88.01
2023-03-06T05:39:47.598Z,87.65
2023-03-06T05:42:14.422Z,88.25
2023-03-06T05:44:41.860Z,88.12
2023-03-06T05:47:09.218Z,88.07
2023-03-06T05:49:36.823Z,87.78
2023-03-06T05:52:04.792Z,87.79
2023-03-06T05:54:37.419Z,87.37
2023-03-06T05:57:05.664Z,87.24
2023-03-06T05:59:33.255Z,87.62
2023-03-06T06:02:01.277Z,87.52
2023-03-06T06:04:28.633Z,87.64
2023-03-06T06:07:00.141Z,87.31
2023-03-06T06:09:27.869Z,87.24
2023-03-06T06:11:59.997Z,87.34
2023-03-06T06:14:27.248Z,87.64
2023-03-06T06:16:54.865Z,87.55
2023-03-06T06:19:22.302Z,87.63
2023-03-06T06:21:54.193Z,87.07
2023-03-06T06:24:23.858Z,87.31
2023-03-06T06:26:55.490Z,87.09
2023-03-06T06:29:23.242Z,86.84
2023-03-06T06:31:51.132Z,86.99
2023-03-06T06:34:18.582Z,87.06
2023-03-06T06:36:45.572Z,86.83
2023-03-06T06:39:15.290Z,87.04
2023-03-06T06:41:59.441Z,86.61
2023-03-06T06:44:28.873Z,86.74
2023-03-06T06:49:42.325Z,86.86
2023-03-06T06:52:09.136Z,87.24
2023-03-06T06:54:35.981Z,87.16
2023-03-06T06:57:02.696Z,87.33
2023-03-06T06:59:29.495Z,87.17
2023-03-06T07:01:56.283Z,87.98
2023-03-06T07:04:23.194Z,88.14
2023-03-06T07:06:49.913Z,87.79
2023-03-06T07:09:16.710Z,87.92
2023-03-06T07:11:43.652Z,88.15
2023-03-06T07:14:10.607Z,87.94
2023-03-06T07:16:37.405Z,88.43
2023-03-06T07:19:04.512Z,88.46
2023-03-06T07:21:31.380Z,88.56
2023-03-06T07:23:58.214Z,89.32
2023-03-06T07:26:26.753Z,88.86
2023-03-06T07:28:54.425Z,88.77
2023-03-06T07:31:24.693Z,88.84
2023-03-06T07:33:52.516Z,88.39
2023-03-06T07:36:19.985Z,88.42
2023-03-06T07:38:46.908Z,88.44
2023-03-06T07:41:15.459Z,88.10
2023-03-06T07:43:43.831Z,87.36
2023-03-06T07:46:12.950Z,87.36
2023-03-06T07:48:40.718Z,87.44
2023-03-06T07:51:13.428Z,87.29
2023-03-06T07:53:40.357Z,87.41
2023-03-06T07:56:09.180Z,87.58
2023-03-06T07:58:41.601Z,87.93
2023-03-06T08:01:14.121Z,88.54
2023-03-06T08:03:41.226Z,88.45
2023-03-06T08:06:16.933Z,88.61
2023-03-06T08:08:46.331Z,88.89
2023-03-06T08:11:16.642Z,88.89
2023-03-06T08:13:43.930Z,88.89
2023-03-06T08:16:11.702Z,88.27
2023-03-06T08:18:39.912Z,88.42
2023-03-06T08:21:09.933Z,87.40
2023-03-06T08:23:36.852Z,87.85
2023-03-06T08:26:06.937Z,88.17
2023-03-06T08:28:34.664Z,88.26
2023-03-06T08:31:30.996Z,88.33
2023-03-06T08:34:01.269Z,88.08
2023-03-06T08:36:28.687Z,87.91
2023-03-06T08:38:55.545Z,88.25
2023-03-06T08:41:22.964Z,88.22
2023-03-06T08:43:50.483Z,87.51
2023-03-06T08:46:18.922Z,87.63
2023-03-06T08:48:47.846Z,87.82
2023-03-06T08:51:15.098Z,87.43
2023-03-06T08:53:43.982Z,87.67
2023-03-06T08:56:18.449Z,87.43
2023-03-06T08:58:45.702Z,86.96
2023-03-06T09:01:18.337Z,87.04
2023-03-06T09:03:46.187Z,87.18
2023-03-06T09:06:13.780Z,87.35
2023-03-06T09:08:44.683Z,87.99
2023-03-06T09:11:14.573Z,88.30
2023-03-06T09:13:42.919Z,87.85
2023-03-06T09:16:11.630Z,87.49
2023-03-06T09:18:38.531Z,88.17
2023-03-06T09:21:06.136Z,87.86
2023-03-06T09:23:33.559Z,88.18
2023-03-06T09:26:01.045Z,88.06
2023-03-06T09:28:27.835Z,88.25
2023-03-06T09:30:54.726Z,88.69
2023-03-06T09:33:21.764Z,88.45
2023-03-06T09:35:54.513Z,88.32
2023-03-06T09:38:23.913Z,88.03
2023-03-06T09:41:15.011Z,88.14
2023-03-06T09:43:48.251Z,89.39
2023-03-06T09:46:36.724Z,89.37
2023-03-06T09:49:38.891Z,87.45
2023-03-06T09:52:31.582Z,88.03
2023-03-06T09:55:10.407Z,88.59
2023-03-06T09:58:17.819Z,88.78
2023-03-06T10:00:58.894Z,89.04
2023-03-06T10:04:02.713Z,88.21
2023-03-06T10:06:50.366Z,87.59
2023-03-06T10:09:48.476Z,88.20
2023-03-06T10:12:24.751Z,88.46
2023-03-06T10:15:06.885Z,89.06
2023-03-06T10:17:41.153Z,89.24
2023-03-06T10:20:42.159Z,89.63
2023-03-06T10:23:25.510Z,89.79
2023-03-06T10:26:26.534Z,89.87
2023-03-06T10:29:11.552Z,89.43
2023-03-06T10:31:49.652Z,90.16
2023-03-06T10:34:23.357Z,89.79
2023-03-06T10:36:50.907Z,90.11
2023-03-06T10:39:20.657Z,90.38
2023-03-06T10:41:48.744Z,90.35
2023-03-06T10:44:15.447Z,89.95
2023-03-06T10:46:45.202Z,90.21
2023-03-06T10:49:15.029Z,90.19
2023-03-06T10:51:59.915Z,88.96
2023-03-06T10:54:28.615Z,88.37
2023-03-06T10:56:55.951Z,88.96
2023-03-06T10:59:25.574Z,89.23
2023-03-06T11:01:55.853Z,88.98
2023-03-06T11:04:30.678Z,89.44
2023-03-06T11:07:16.279Z,90.17
2023-03-06T11:10:04.443Z,90.27
2023-03-06T11:12:36.666Z,88.83
2023-03-06T11:15:17.360Z,88.68
2023-03-06T11:17:50.147Z,87.21
2023-03-06T11:20:52.071Z,87.21
2023-03-06T11:23:52.272Z,87.92
2023-03-06T11:26:34.178Z,87.68
2023-03-06T11:29:24.953Z,87.15
2023-03-06T11:31:55.095Z,87.22
2023-03-06T11:34:33.992Z,87.53
2023-03-06T11:37:06.596Z,87.30
2023-03-06T11:39:43.864Z,85.60
2023-03-06T11:42:10.544Z,83.95
2023-03-06T11:44:49.417Z,84.43
2023-03-06T11:47:24.100Z,84.60
2023-03-06T11:50:02.814Z,85.29
2023-03-06T11:52:45.381Z,85.26
2023-03-06T11:55:20.862Z,84.89
2023-03-06T11:58:12.028Z,85.46
2023-03-06T12:00:47.758Z,86.10
2023-03-06T12:03:26.742Z,85.84
2023-03-06T12:06:25.903Z,86.10
2023-03-06T12:09:37.490Z,86.64
2023-03-06T12:12:10.757Z,86.56
2023-03-06T12:14:55.852Z,86.16
2023-03-06T12:17:22.590Z,86.19
2023-03-06T12:19:58.897Z,86.59
2023-03-06T12:22:30.154Z,86.64
2023-03-06T12:25:07.988Z,86.73
2023-03-06T12:27:59.634Z,86.50
2023-03-06T12:30:57.043Z,86.80
2023-03-06T12:33:33.146Z,86.73
2023-03-06T12:36:17.127Z,86.19
2023-03-06T12:39:14.667Z,86.56
2023-03-06T12:42:26.008Z,86.78
2023-03-06T12:45:06.783Z,87.78
2023-03-06T12:47:41.067Z,86.38
2023-03-06T12:50:23.304Z,86.64
2023-03-06T12:52:53.237Z,87.55
2023-03-06T12:55:24.974Z,87.42
2023-03-06T12:57:52.853Z,87.46
2023-03-06T13:00:35.317Z,87.75
2023-03-06T13:03:11.612Z,86.50
2023-03-06T13:05:50.295Z,85.31
2023-03-06T13:08:38.763Z,84.68
2023-03-06T13:11:39.678Z,85.06
2023-03-06T13:14:42.327Z,84.83
2023-03-06T13:17:20.939Z,84.58
2023-03-06T13:19:48.613Z,85.14
2023-03-06T13:22:27.920Z,86.16
2023-03-06T13:25:19.620Z,83.55
2023-03-06T13:27:53.526Z,84.17
2023-03-06T13:30:45.610Z,81.98
2023-03-06T13:33:44.487Z,82.16
2023-03-06T13:36:34.438Z,81.06
2023-03-06T13:39:02.180Z,83.42
2023-03-06T13:41:31.799Z,81.77
2023-03-06T13:44:23.249Z,81.83
2023-03-06T13:46:59.884Z,80.93
2023-03-06T13:49:28.624Z,81.07
2023-03-06T13:52:10.808Z,81.32
2023-03-06T13:54:53.273Z,82.25
2023-03-06T13:57:47.384Z,83.51
2023-03-06T14:00:17.641Z,83.36
2023-03-06T14:03:06.916Z,82.84
2023-03-06T14:05:50.846Z,81.93
2023-03-06T14:08:21.714Z,80.93
2023-03-06T14:11:00.748Z,80.73
2023-03-06T14:13:45.234Z,80.46
2023-03-06T14:16:27.851Z,81.01
2023-03-06T14:18:58.573Z,81.31
2023-03-06T14:21:39.723Z,82.16
2023-03-06T14:24:06.634Z,82.95
2023-03-06T14:26:47.202Z,82.07
2023-03-06T14:29:26.180Z,80.70
2023-03-06T14:31:58.986Z,80.86
2023-03-06T14:34:28.680Z,80.82
2023-03-06T14:37:00.756Z,81.27
2023-03-06T14:39:42.232Z,81.71
2023-03-06T14:42:16.757Z,82.61
2023-03-06T14:44:44.510Z,83.21
2023-03-06T14:47:22.159Z,82.79
2023-03-06T14:50:28.045Z,82.26
2023-03-06T14:52:59.359Z,82.06
2023-03-06T14:55:28.190Z,80.79
2023-03-06T14:58:07.935Z,79.60
2023-03-06T15:00:41.682Z,79.76
2023-03-06T15:03:17.812Z,80.67
2023-03-06T15:05:46.894Z,82.21
2023-03-06T15:08:20.498Z,82.48
2023-03-06T15:11:02.490Z,82.93
2023-03-06T15:13:32.580Z,83.00
2023-03-06T15:16:04.577Z,82.80
2023-03-06T15:18:42.745Z,82.21
2023-03-06T15:21:13.567Z,81.77
2023-03-06T15:23:45.731Z,81.12
2023-03-06T15:26:18.328Z,81.58
2023-03-06T15:28:47.530Z,81.60
2023-03-06T15:31:30.984Z,80.52
2023-03-06T15:34:02.225Z,78.76
2023-03-06T15:36:31.897Z,80.12
2023-03-06T15:39:00.833Z,79.75
2023-03-06T15:41:36.390Z,80.18
2023-03-06T15:44:11.540Z,81.91
2023-03-06T15:46:38.652Z,81.25
2023-03-06T15:49:05.449Z,80.32
2023-03-06T15:51:33.420Z,79.50
2023-03-06T15:54:11.273Z,80.26
2023-03-06T15:56:42.111Z,80.03
2023-03-06T15:59:20.108Z,79.36
2023-03-06T16:01:47.443Z,77.05
2023-03-06T16:04:17.068Z,76.50
2023-03-06T16:06:47.712Z,77.50
2023-03-06T16:09:14.739Z,79.20
2023-03-06T16:11:44.958Z,81.20
2023-03-06T16:14:20.174Z,80.79
2023-03-06T16:16:48.147Z,81.75
2023-03-06T16:19:25.923Z,82.42
2023-03-06T16:21:54.718Z,82.51
2023-03-06T16:24:21.988Z,82.50
2023-03-06T16:26:51.115Z,82.22
2023-03-06T16:29:22.971Z,82.21
2023-03-06T16:31:50.278Z,82.97
2023-03-06T16:34:19.874Z,83.27
2023-03-06T16:36:48.581Z,83.71
2023-03-06T16:39:17.531Z,82.87
2023-03-06T16:41:45.996Z,83.10
2023-03-06T16:44:13.710Z,82.91
2023-03-06T16:46:45.958Z,83.25
2023-03-06T16:49:16.929Z,83.70
2023-03-06T16:51:44.064Z,84.05
2023-03-06T16:54:11.446Z,83.77
2023-03-06T16:56:38.237Z,84.04
2023-03-06T16:59:05.311Z,84.44
2023-03-06T17:01:32.287Z,84.41
2023-03-06T17:04:08.669Z,84.73
2023-03-06T17:06:35.644Z,85.13
2023-03-06T17:09:02.553Z,85.24
2023-03-06T17:11:29.738Z,85.44
2023-03-06T17:13:56.535Z,85.41
2023-03-06T17:16:23.411Z,85.22
2023-03-06T17:18:50.796Z,85.32
2023-03-06T17:21:17.853Z,85.51
2023-03-06T17:23:44.822Z,86.09
2023-03-06T17:26:18.826Z,86.34
2023-03-06T17:28:46.457Z,85.75
2023-03-06T17:31:16.918Z,85.41
2023-03-06T17:33:44.093Z,85.20
2023-03-06T17:36:11.666Z,84.52
2023-03-06T17:38:38.656Z,84.82
2023-03-06T17:41:06.965Z,84.35
2023-03-06T17:43:34.220Z,83.66
2023-03-06T17:46:12.416Z,83.49
2023-03-06T17:48:40.334Z,83.73
2023-03-06T17:51:07.530Z,83.99
2023-03-06T17:53:34.514Z,84.21
2023-03-06T17:56:06.674Z,84.17
2023-03-06T17:58:34.275Z,84.84
2023-03-06T18:01:01.489Z,85.05
2023-03-06T18:03:28.491Z,85.33
2023-03-06T18:06:03.974Z,83.50
2023-03-06T18:08:32.282Z,83.73
2023-03-06T18:11:01.324Z,82.91
2023-03-06T18:13:28.377Z,83.30
2023-03-06T18:15:55.437Z,84.41
2023-03-06T18:18:23.618Z,84.85
2023-03-06T18:20:50.504Z,85.19
2023-03-06T18:23:17.674Z,86.13
2023-03-06T18:25:44.980Z,86.43
2023-03-06T18:28:12.394Z,86.61
2023-03-06T18:30:43.818Z,87.33
2023-03-06T18:33:10.970Z,86.89
2023-03-06T18:35:38.118Z,87.17
2023-03-06T18:38:05.107Z,87.28
2023-03-06T18:40:32.474Z,87.09
2023-03-06T18:42:59.453Z,86.87
2023-03-06T18:45:26.603Z,85.87
2023-03-06T18:47:54.928Z,85.73
2023-03-06T18:50:21.716Z,85.84
2023-03-06T18:52:48.609Z,86.17
2023-03-06T18:55:15.504Z,86.33
2023-03-06T18:57:42.451Z,86.08
2023-03-06T19:00:09.921Z,85.94
2023-03-06T19:02:36.675Z,86.11
2023-03-06T19:05:03.888Z,85.89
2023-03-06T19:07:30.704Z,85.70
2023-03-06T19:09:57.679Z,85.57
2023-03-06T19:12:24.619Z,85.52
2023-03-06T19:14:51.615Z,85.38
2023-03-06T19:17:18.451Z,84.83
2023-03-06T19:19:45.756Z,85.05
2023-03-06T19:22:13.013Z,85.98
2023-03-06T19:24:40.310Z,86.16
2023-03-06T19:27:07.177Z,86.65
2023-03-06T19:29:34.059Z,86.50
2023-03-06T19:32:01.513Z,86.53
2023-03-06T19:34:28.863Z,86.89
2023-03-06T19:36:55.869Z,86.73
2023-03-06T19:39:24.873Z,86.58
2023-03-06T19:41:52.507Z,86.54
2023-03-06T19:44:19.958Z,86.84
2023-03-06T19:46:47.179Z,86.91
2023-03-06T19:49:18.292Z,86.70
2023-03-06T19:51:45.943Z,86.60
2023-03-06T19:54:14.179Z,86.54
2023-03-06T19:56:41.519Z,87.06
2023-03-06T19:59:09.097Z,86.72
2023-03-06T20:01:36.526Z,86.76
2023-03-06T20:04:04.364Z,86.77
2023-03-06T20:06:39.481Z,86.85
2023-03-06T20:09:09.594Z,87.09
2023-03-06T20:11:37.219Z,86.75
2023-03-06T20:14:06.825Z,86.39
2023-03-06T20:16:34.858Z,86.28
2023-03-06T20:19:03.606Z,86.44
2023-03-06T20:21:35.985Z,86.47
2023-03-06T20:24:04.801Z,85.86
2023-03-06T20:26:34.524Z,85.75
2023-03-06T20:29:02.335Z,85.71
2023-03-06T20:31:30.626Z,85.65
2023-03-06T20:33:59.594Z,85.93
2023-03-06T20:36:36.252Z,85.77
2023-03-06T20:39:12.355Z,86.43
2023-03-06T20:41:39.749Z,86.18
2023-03-06T20:44:08.784Z,86.10
2023-03-06T20:46:36.880Z,86.06
2023-03-06T20:49:05.003Z,86.52
2023-03-06T20:51:36.261Z,86.46
2023-03-06T20:54:03.785Z,86.46
2023-03-06T20:56:33.330Z,86.43
2023-03-06T20:59:01.459Z,85.87
2023-03-06T21:01:35.339Z,84.91
2023-03-06T21:04:04.658Z,85.51
2023-03-06T21:06:32.127Z,85.54
2023-03-06T21:09:00.545Z,85.38
2023-03-06T21:11:29.210Z,85.83
2023-03-06T21:13:57.345Z,85.90
2023-03-06T21:16:26.264Z,85.93
2023-03-06T21:18:59.108Z,85.96
2023-03-06T21:21:33.180Z,85.21
2023-03-06T21:24:01.370Z,85.18
2023-03-06T21:26:30.528Z,85.26
2023-03-06T21:29:01.140Z,85.35
2023-03-06T21:31:29.805Z,85.37
2023-03-06T21:33:59.176Z,85.13
2023-03-06T21:36:30.161Z,85.08
2023-03-06T21:38:57.945Z,84.94
2023-03-06T21:41:28.674Z,84.30
2023-03-06T21:43:58.561Z,84.13
2023-03-06T21:46:27.467Z,84.20
2023-03-06T21:48:55.766Z,84.86
2023-03-06T21:51:23.852Z,85.38
2023-03-06T21:53:53.004Z,85.31
2023-03-06T21:56:24.460Z,84.71
2023-03-06T21:58:52.021Z,85.28
2023-03-06T22:01:22.238Z,84.83
2023-03-06T22:03:50.800Z,84.83
2023-03-06T22:06:21.153Z,85.03
2023-03-06T22:08:48.495Z,84.88
2023-03-06T22:11:17.835Z,84.95
2023-03-06T22:13:46.146Z,84.57
2023-03-06T22:16:13.338Z,84.11
2023-03-06T22:18:43.864Z,84.05
2023-03-06T22:21:13.057Z,84.61
2023-03-06T22:23:43.388Z,84.75
2023-03-06T22:26:13.707Z,84.69
2023-03-06T22:28:41.981Z,84.66
2023-03-06T22:31:13.136Z,84.50
2023-03-06T22:33:40.814Z,85.05
2023-03-06T22:36:10.803Z,83.98
2023-03-06T22:38:40.202Z,84.34
2023-03-06T22:41:08.442Z,84.72
2023-03-06T22:43:36.532Z,85.22
2023-03-06T22:46:06.251Z,84.70
2023-03-06T22:48:33.482Z,84.81
2023-03-06T22:51:09.559Z,85.18
2023-03-06T22:53:37.278Z,84.85
2023-03-06T22:56:06.526Z,85.06
2023-03-06T22:58:37.212Z,84.87
2023-03-06T23:01:25.356Z,84.44
2023-03-06T23:03:54.996Z,84.23
2023-03-06T23:06:43.281Z,84.54
2023-03-06T23:09:20.671Z,84.99
2023-03-06T23:12:06.054Z,84.91
2023-03-06T23:14:51.671Z,84.52
2023-03-06T23:17:37.130Z,84.53
2023-03-06T23:20:23.115Z,84.68
2023-03-06T23:23:08.423Z,84.86
2023-03-06T23:25:41.520Z,85.35
2023-03-06T23:28:08.500Z,85.40
2023-03-06T23:30:35.382Z,85.03
2023-03-06T23:33:02.417Z,85.61
2023-03-06T23:35:29.231Z,84.60
2023-03-06T23:37:56.432Z,84.71
2023-03-06T23:40:23.267Z,84.81
2023-03-06T23:42:50.144Z,84.67
2023-03-06T23:45:17.133Z,84.65
2023-03-06T23:47:44.121Z,85.33
2023-03-06T23:50:11.956Z,84.81
2023-03-06T23:52:38.855Z,84.92
2023-03-06T23:55:07.288Z,84.33
2023-03-06T23:57:34.777Z,84.58
